Time;durP1;ratioP1;P1;durP2;ratioP2;P2;SDS_P1;SDS_P2;PMS_P1;PMS_P2;Temp;Humidity;BMP_temperature;BMP_pressure;BME280_temperature;BME280_humidity;BME280_pressure;Samples;Min_cycle;Max_cycle;Signal;HPM_P1;HPM_P2
2022/05/29 00:00:51;;;;;;;5.73;2.40;;;8.00;99.90;;;;;;5014511;28;20890;-78
2022/05/29 00:03:17;;;;;;;5.17;2.33;;;8.00;99.90;;;;;;5013838;28;20061;-78
2022/05/29 00:05:44;;;;;;;5.63;2.97;;;8.00;99.90;;;;;;5013036;28;20444;-78
2022/05/29 00:08:26;;;;;;;6.97;2.50;;;7.90;99.90;;;;;;5014510;28;20436;-78
2022/05/29 00:10:52;;;;;;;6.83;2.93;;;7.90;99.90;;;;;;5014328;28;20077;-78
2022/05/29 00:13:18;;;;;;;9.03;2.47;;;7.90;99.90;;;;;;5014055;28;20084;-79
2022/05/29 00:15:43;;;;;;;7.83;2.63;;;7.80;99.90;;;;;;5013076;28;20026;-79
2022/05/29 00:18:09;;;;;;;5.17;2.90;;;7.80;99.90;;;;;;5013976;28;20062;-78
2022/05/29 00:20:36;;;;;;;6.57;2.30;;;7.70;99.90;;;;;;5014106;28;20032;-78
2022/05/29 00:23:03;;;;;;;9.63;3.33;;;7.60;99.90;;;;;;5013536;28;20043;-79
2022/05/29 00:25:28;;;;;;;6.07;2.30;;;7.60;99.90;;;;;;5014098;28;20403;-79
2022/05/29 00:27:54;;;;;;;6.07;2.80;;;7.60;99.90;;;;;;5012775;28;20022;-79
2022/05/29 00:30:19;;;;;;;5.67;2.53;;;7.50;99.90;;;;;;5013032;28;20065;-79
2022/05/29 00:32:45;;;;;;;4.90;2.70;;;7.50;99.90;;;;;;5005040;28;20026;-79
2022/05/29 00:35:11;;;;;;;8.00;2.80;;;7.50;99.90;;;;;;5013087;28;20030;-79
2022/05/29 00:37:39;;;;;;;9.27;2.80;;;7.50;99.90;;;;;;5014168;28;20030;-79
2022/05/29 00:40:18;;;;;;;7.70;3.23;;;7.40;99.90;;;;;;5013739;28;20033;-79
2022/05/29 00:42:44;;;;;;;5.63;2.63;;;7.40;99.90;;;;;;5012441;28;20025;-79
2022/05/29 00:45:18;;;;;;;7.67;2.90;;;7.40;99.90;;;;;;5013587;28;20036;-79
2022/05/29 00:47:43;;;;;;;6.73;2.30;;;7.30;99.90;;;;;;5006585;28;20022;-79
2022/05/29 00:50:09;;;;;;;5.97;2.63;;;7.30;99.90;;;;;;5012967;28;20018;-79
2022/05/29 00:52:35;;;;;;;6.77;3.27;;;7.30;99.90;;;;;;5012990;28;20022;-79
2022/05/29 00:55:06;;;;;;;7.83;2.93;;;7.20;99.90;;;;;;4999490;28;20060;-79
2022/05/29 00:57:37;;;;;;;6.13;2.43;;;7.20;99.90;;;;;;5011687;28;20056;-79
2022/05/29 01:00:14;;;;;;;9.17;2.80;;;7.20;99.90;;;;;;5012561;28;20028;-78
2022/05/29 01:02:41;;;;;;;7.67;2.77;;;7.10;99.90;;;;;;5011384;28;20033;-79
2022/05/29 01:05:08;;;;;;;5.87;2.87;;;7.10;99.90;;;;;;5026961;28;20021;-79
2022/05/29 01:07:36;;;;;;;6.23;2.50;;;7.00;99.90;;;;;;5004062;28;20025;-78
2022/05/29 01:10:03;;;;;;;4.73;2.70;;;7.00;99.90;;;;;;5012621;28;20041;-79
2022/05/29 01:12:36;;;;;;;5.87;2.57;;;6.90;99.90;;;;;;5004421;28;20035;-78
2022/05/29 01:15:10;;;;;;;6.67;2.53;;;6.90;99.90;;;;;;5008477;28;20026;-78
2022/05/29 01:18:08;;;;;;;5.47;2.87;;;6.90;99.90;;;;;;5011526;28;20397;-78
2022/05/29 01:20:57;;;;;;;6.20;2.50;;;6.80;99.90;;;;;;5010873;28;20391;-78
2022/05/29 01:23:44;;;;;;;11.20;2.97;;;6.80;99.90;;;;;;5009450;28;20058;-78
2022/05/29 01:26:46;;;;;;;6.90;2.60;;;6.80;99.90;;;;;;5005570;28;20422;-78
2022/05/29 01:29:16;;;;;;;4.97;2.33;;;6.80;99.90;;;;;;5012579;28;20029;-78
2022/05/29 01:31:50;;;;;;;3.57;2.17;;;6.70;99.90;;;;;;5012656;28;20032;-78
2022/05/29 01:34:19;;;;;;;6.20;2.63;;;6.70;99.90;;;;;;5010181;28;20048;-78
2022/05/29 01:37:03;;;;;;;6.47;2.17;;;6.70;99.90;;;;;;5012349;28;20014;-78
2022/05/29 01:39:31;;;;;;;8.13;2.50;;;6.70;99.90;;;;;;4995456;28;20356;-79
2022/05/29 01:42:03;;;;;;;7.97;2.60;;;6.70;99.90;;;;;;5012529;28;20034;-78
2022/05/29 01:44:46;;;;;;;7.67;2.60;;;6.60;99.90;;;;;;5012236;28;20418;-79
2022/05/29 01:47:23;;;;;;;8.03;3.40;;;6.60;99.90;;;;;;5010946;28;20092;-78
2022/05/29 01:49:51;;;;;;;11.70;2.80;;;6.60;99.90;;;;;;5011076;28;20040;-78
2022/05/29 01:52:20;;;;;;;6.93;2.43;;;6.60;99.90;;;;;;5012161;28;20041;-78
2022/05/29 01:55:16;;;;;;;7.00;2.10;;;6.60;99.90;;;;;;4996995;28;20424;-78
2022/05/29 01:57:47;;;;;;;4.95;2.40;;;6.60;99.90;;;;;;5006452;28;20053;-78
2022/05/29 02:00:16;;;;;;;5.07;2.50;;;6.60;99.90;;;;;;5011305;28;20108;-78
2022/05/29 02:02:44;;;;;;;6.10;2.20;;;6.60;99.90;;;;;;4999313;28;20540;-79
2022/05/29 02:05:17;;;;;;;5.77;2.27;;;6.60;99.90;;;;;;5013151;28;20049;-79
2022/05/29 02:07:48;;;;;;;5.33;2.20;;;6.60;99.90;;;;;;5013515;28;20713;-79
2022/05/29 02:10:25;;;;;;;7.40;2.60;;;6.70;99.90;;;;;;5010891;28;20080;-78
2022/05/29 02:13:10;;;;;;;6.57;2.20;;;6.60;99.90;;;;;;5012662;28;20465;-79
2022/05/29 02:15:45;;;;;;;4.40;2.65;;;6.60;99.90;;;;;;5000168;28;20030;-78
2022/05/29 02:18:26;;;;;;;5.47;2.50;;;6.60;99.90;;;;;;5011334;28;20491;-78
2022/05/29 02:20:55;;;;;;;4.00;2.27;;;6.50;99.90;;;;;;5010496;28;20116;-78
2022/05/29 02:23:30;;;;;;;5.00;2.27;;;6.40;99.90;;;;;;5011579;28;20096;-78
2022/05/29 02:25:57;;;;;;;6.03;2.40;;;6.40;99.90;;;;;;5011556;28;20100;-78
2022/05/29 02:28:30;;;;;;;7.87;2.80;;;6.40;99.90;;;;;;5011587;28;20030;-78
2022/05/29 02:31:34;;;;;;;4.70;2.40;;;6.40;99.90;;;;;;5012941;28;20090;-78
2022/05/29 02:34:11;;;;;;;4.50;2.37;;;6.30;99.90;;;;;;5000211;28;20049;-79
2022/05/29 02:36:48;;;;;;;5.47;2.17;;;6.30;99.90;;;;;;5011483;28;20534;-78
2022/05/29 02:39:32;;;;;;;5.03;2.50;;;6.30;99.90;;;;;;4999265;28;20021;-79
2022/05/29 02:42:01;;;;;;;7.00;2.30;;;6.20;99.90;;;;;;5011415;28;20037;-78
2022/05/29 02:44:52;;;;;;;3.17;2.47;;;6.20;99.90;;;;;;5011353;28;20372;-78
2022/05/29 02:48:02;;;;;;;3.43;2.50;;;6.10;99.90;;;;;;5011525;28;20393;-78
2022/05/29 02:50:47;;;;;;;4.37;2.23;;;6.10;99.90;;;;;;5011199;28;20033;-78
2022/05/29 02:53:15;;;;;;;5.93;2.80;;;6.00;99.90;;;;;;5010777;28;20129;-78
2022/05/29 02:55:43;;;;;;;6.67;2.40;;;6.00;99.90;;;;;;5003717;28;20034;-78
2022/05/29 02:58:18;;;;;;;5.97;2.30;;;6.00;99.90;;;;;;5011111;28;20371;-79
2022/05/29 03:00:56;;;;;;;;;;;6.00;99.90;;;;;;5010336;28;20026;-78
2022/05/29 03:04:01;;;;;;;5.33;2.17;;;6.00;99.90;;;;;;4997509;28;19909;-78
2022/05/29 03:06:37;;;;;;;6.37;3.27;;;5.90;99.90;;;;;;5010288;28;20045;-79
2022/05/29 03:09:41;;;;;;;7.10;3.83;;;5.80;99.90;;;;;;5011256;28;20475;-78
2022/05/29 03:12:26;;;;;;;9.20;3.90;;;5.80;99.90;;;;;;4969750;28;20034;-78
2022/05/29 03:15:07;;;;;;;6.93;3.60;;;5.80;99.90;;;;;;4969161;28;20081;-78
2022/05/29 03:17:37;;;;;;;5.27;2.20;;;5.80;99.90;;;;;;4991952;28;20045;-78
2022/05/29 03:20:13;;;;;;;4.07;2.10;;;5.80;99.90;;;;;;5010759;28;20041;-78
2022/05/29 03:23:07;;;;;;;3.20;2.03;;;5.80;99.90;;;;;;5010768;28;20368;-78
2022/05/29 03:25:38;;;;;;;7.13;2.47;;;5.80;99.90;;;;;;4997610;28;20390;-78
2022/05/29 03:28:27;;;;;;;5.47;2.10;;;5.80;99.90;;;;;;5013679;28;20040;-78
2022/05/29 03:30:54;;;;;;;5.40;2.30;;;5.80;99.90;;;;;;5014155;28;20037;-78
2022/05/29 03:33:20;;;;;;;5.20;2.50;;;5.80;99.90;;;;;;5014651;28;20037;-78
2022/05/29 03:36:03;;;;;;;5.43;2.60;;;5.80;99.90;;;;;;5013256;28;20076;-78
2022/05/29 03:38:29;;;;;;;7.30;2.57;;;5.80;99.90;;;;;;5013748;28;20075;-78
2022/05/29 03:40:56;;;;;;;5.10;2.10;;;5.80;99.90;;;;;;5013272;28;20110;-78
2022/05/29 03:43:21;;;;;;;3.40;2.20;;;5.70;99.90;;;;;;5014550;28;20029;-78
2022/05/29 03:45:47;;;;;;;4.00;1.93;;;5.70;99.90;;;;;;5029539;28;20471;-78
2022/05/29 03:48:13;;;;;;;5.13;2.40;;;5.70;99.90;;;;;;5012706;28;20127;-79
2022/05/29 03:50:38;;;;;;;6.97;2.20;;;5.70;99.90;;;;;;5014180;28;20080;-79
2022/05/29 03:53:04;;;;;;;6.70;2.33;;;5.70;99.90;;;;;;5014364;28;20026;-78
2022/05/29 03:55:30;;;;;;;6.37;2.23;;;5.70;99.90;;;;;;5010044;28;20107;-78
2022/05/29 03:57:56;;;;;;;5.40;2.10;;;5.70;99.90;;;;;;5029071;28;20029;-78
2022/05/29 04:00:24;;;;;;;5.80;2.50;;;5.70;99.90;;;;;;5005270;28;20030;-78
2022/05/29 04:02:50;;;;;;;3.73;2.13;;;5.70;99.90;;;;;;5013857;28;20152;-78
2022/05/29 04:05:19;;;;;;;4.53;2.23;;;5.70;99.90;;;;;;5014189;28;20042;-78
2022/05/29 04:13:14;;;;;;;5.43;2.33;;;5.80;99.90;;;;;;5013585;28;20037;-78
2022/05/29 04:15:45;;;;;;;4.70;2.53;;;5.80;99.90;;;;;;5029306;28;20030;-78
2022/05/29 04:18:12;;;;;;;5.40;2.17;;;5.90;99.90;;;;;;5013262;28;20130;-78
2022/05/29 04:20:38;;;;;;;3.90;2.23;;;5.90;99.90;;;;;;5013797;28;20030;-78
2022/05/29 04:23:03;;;;;;;4.90;2.63;;;6.00;99.90;;;;;;5013735;28;20117;-78
2022/05/29 04:25:30;;;;;;;4.47;2.20;;;6.00;99.90;;;;;;4999862;28;20022;-78
2022/05/29 04:27:55;;;;;;;7.47;2.90;;;6.10;99.90;;;;;;5013218;28;20018;-78
2022/05/29 04:30:21;;;;;;;6.90;2.73;;;6.20;99.90;;;;;;5027799;28;20041;-79
2022/05/29 04:33:01;;;;;;;6.40;2.67;;;6.30;99.90;;;;;;5013669;28;20452;-78
2022/05/29 04:35:36;;;;;;;6.40;2.70;;;6.30;99.90;;;;;;5011647;28;20026;-78
2022/05/29 04:38:02;;;;;;;6.00;2.95;;;6.50;99.90;;;;;;5012285;28;20062;-78
2022/05/29 04:40:30;;;;;;;8.83;3.30;;;6.60;99.90;;;;;;5013161;28;20042;-79
2022/05/29 04:42:55;;;;;;;6.57;3.47;;;6.70;99.90;;;;;;5013284;28;20030;-79
2022/05/29 04:45:21;;;;;;;5.83;3.57;;;6.80;99.90;;;;;;5013282;28;20037;-79
2022/05/29 04:47:47;;;;;;;8.00;3.40;;;6.90;99.90;;;;;;5011640;28;20025;-79
2022/05/29 04:50:13;;;;;;;7.07;3.83;;;7.10;99.90;;;;;;5013290;28;20040;-79
2022/05/29 04:52:38;;;;;;;6.80;3.33;;;7.20;99.90;;;;;;5013027;28;20168;-79
2022/05/29 04:55:05;;;;;;;12.13;3.97;;;7.30;99.90;;;;;;5004114;28;20037;-79
2022/05/29 04:57:31;;;;;;;6.00;3.77;;;7.40;99.90;;;;;;5011785;28;20025;-79
2022/05/29 04:59:57;;;;;;;7.27;3.77;;;7.40;99.90;;;;;;5012623;28;20025;-79
2022/05/29 05:02:24;;;;;;;6.23;4.00;;;7.50;99.90;;;;;;5013339;28;20025;-79
2022/05/29 05:04:49;;;;;;;5.37;3.53;;;7.60;99.90;;;;;;5012854;28;20010;-79
2022/05/29 05:07:15;;;;;;;8.47;4.10;;;7.70;99.90;;;;;;5012097;28;20371;-79
2022/05/29 05:09:40;;;;;;;6.20;4.67;;;7.70;99.90;;;;;;5012713;28;20037;-79
2022/05/29 05:12:06;;;;;;;5.03;3.50;;;7.70;99.90;;;;;;5013083;28;20017;-79
2022/05/29 05:14:34;;;;;;;9.23;4.10;;;7.80;99.90;;;;;;5011634;28;20018;-79
2022/05/29 05:17:00;;;;;;;7.83;3.57;;;7.90;99.90;;;;;;5012977;28;20026;-76
2022/05/29 05:19:26;;;;;;;10.30;3.60;;;8.00;99.90;;;;;;5012483;28;20044;-77
2022/05/29 05:21:52;;;;;;;5.43;3.40;;;8.10;99.90;;;;;;5012407;28;20022;-77
2022/05/29 05:24:18;;;;;;;8.50;3.93;;;8.20;99.90;;;;;;5012305;28;20080;-77
2022/05/29 05:26:44;;;;;;;7.50;3.97;;;8.30;99.90;;;;;;5010550;28;20340;-77
2022/05/29 05:29:11;;;;;;;6.40;3.73;;;8.50;99.90;;;;;;5012572;28;20125;-77
2022/05/29 05:31:37;;;;;;;6.87;3.60;;;8.60;99.90;;;;;;5012333;28;20163;-77
2022/05/29 05:34:03;;;;;;;7.97;3.83;;;8.80;99.90;;;;;;5011110;28;20026;-77
2022/05/29 05:36:29;;;;;;;6.83;3.60;;;8.90;99.90;;;;;;5012468;28;20491;-78
2022/05/29 05:38:55;;;;;;;6.63;4.10;;;9.10;99.90;;;;;;5012369;28;20025;-78
2022/05/29 05:41:21;;;;;;;6.80;3.90;;;9.20;99.90;;;;;;5010556;28;20022;-78
2022/05/29 05:43:47;;;;;;;6.67;3.93;;;9.30;99.90;;;;;;5010768;28;20453;-78
2022/05/29 05:46:15;;;;;;;4.63;3.43;;;9.50;99.90;;;;;;5013711;28;20068;-78
2022/05/29 05:48:40;;;;;;;5.07;3.37;;;9.60;99.90;;;;;;5013919;28;20053;-78
2022/05/29 05:51:07;;;;;;;4.43;3.20;;;9.80;99.90;;;;;;5013033;28;20254;-78
2022/05/29 05:53:34;;;;;;;7.47;3.60;;;9.90;99.90;;;;;;5026448;28;20438;-79
2022/05/29 05:56:13;;;;;;;6.93;3.37;;;10.00;99.90;;;;;;5012964;28;20022;-79
2022/05/29 05:58:40;;;;;;;6.13;2.90;;;10.10;99.90;;;;;;5013454;28;20022;-80
2022/05/29 06:01:09;;;;;;;6.53;3.17;;;10.20;99.90;;;;;;5012074;28;20022;-80
2022/05/29 06:03:35;;;;;;;8.70;3.50;;;10.30;99.90;;;;;;5001648;28;20108;-80
2022/05/29 06:06:00;;;;;;;7.47;3.43;;;10.50;99.90;;;;;;5019143;28;20031;-79
2022/05/29 06:08:26;;;;;;;4.97;3.10;;;10.60;99.90;;;;;;5008661;28;20034;-77
2022/05/29 06:10:51;;;;;;;8.82;3.55;;;10.80;99.90;;;;;;5003664;28;20105;-78
2022/05/29 06:13:17;;;;;;;5.70;3.33;;;10.90;99.90;;;;;;5015258;28;20536;-79
2022/05/29 06:15:46;;;;;;;5.80;3.20;;;11.00;99.90;;;;;;5012923;28;20022;-79
2022/05/29 06:18:13;;;;;;;6.15;3.30;;;11.10;99.90;;;;;;5011540;28;20038;-80
2022/05/29 06:20:39;;;;;;;8.60;3.33;;;11.20;99.90;;;;;;5012604;28;20026;-80
2022/05/29 06:23:04;;;;;;;5.18;3.00;;;11.20;99.90;;;;;;5012177;28;20028;-80
2022/05/29 06:25:30;;;;;;;6.40;2.83;;;11.30;99.90;;;;;;5012388;28;20097;-80
2022/05/29 06:27:56;;;;;;;4.80;3.20;;;11.30;99.90;;;;;;5012198;28;20057;-79
2022/05/29 06:30:21;;;;;;;6.22;2.95;;;11.20;99.90;;;;;;5011268;28;20041;-80
2022/05/29 06:32:47;;;;;;;4.30;2.75;;;11.10;99.90;;;;;;5012459;28;20032;-79
2022/05/29 06:35:15;;;;;;;5.82;3.13;;;11.00;99.90;;;;;;5012234;28;20020;-80
2022/05/29 06:37:41;;;;;;;6.55;3.85;;;10.90;99.90;;;;;;5012116;28;20018;-80
2022/05/29 06:40:09;;;;;;;4.93;3.00;;;10.80;99.90;;;;;;5012058;28;20021;-79
2022/05/29 06:42:35;;;;;;;5.07;3.00;;;10.70;99.90;;;;;;5012515;28;20018;-79
2022/05/29 06:45:02;;;;;;;4.93;3.17;;;10.60;99.90;;;;;;5012075;28;20033;-80
2022/05/29 06:47:28;;;;;;;4.85;2.92;;;10.60;99.90;;;;;;5012252;28;20018;-80
2022/05/29 06:49:53;;;;;;;7.70;3.60;;;10.60;99.90;;;;;;5012049;28;20083;-80
2022/05/29 06:52:19;;;;;;;7.78;3.28;;;10.80;99.90;;;;;;5011450;28;20112;-80
2022/05/29 06:54:45;;;;;;;6.13;3.40;;;10.90;99.90;;;;;;5010880;28;20177;-79
2022/05/29 06:57:12;;;;;;;5.95;3.75;;;11.20;99.90;;;;;;5026428;28;20493;-79
2022/05/29 07:07:53;;;;;;;5.22;2.35;;;12.00;99.90;;;;;;5015499;28;20072;-80
2022/05/29 07:10:19;;;;;;;5.75;2.58;;;12.10;99.90;;;;;;5014744;28;20414;-80
2022/05/29 07:12:45;;;;;;;4.38;2.60;;;12.20;99.90;;;;;;5015464;28;20038;-79
2022/05/29 07:15:11;;;;;;;7.00;2.72;;;12.40;99.90;;;;;;5008315;28;20022;-79
2022/05/29 07:17:36;;;;;;;4.93;2.60;;;12.50;99.90;;;;;;5015435;28;20073;-80
2022/05/29 07:20:05;;;;;;;5.05;2.55;;;12.70;99.90;;;;;;5013636;28;20075;-80
2022/05/29 07:22:32;;;;;;;6.00;2.67;;;12.80;99.90;;;;;;5014130;28;20797;-79
2022/05/29 07:24:58;;;;;;;7.90;2.60;;;12.80;99.90;;;;;;5014949;28;20029;-80
2022/05/29 07:27:24;;;;;;;6.13;2.40;;;12.90;99.90;;;;;;5014158;28;20035;-80
2022/05/29 07:29:49;;;;;;;3.92;2.20;;;13.00;99.90;;;;;;5011988;28;20111;-79
2022/05/29 07:32:15;;;;;;;8.93;2.67;;;13.00;99.90;;;;;;5014727;28;20034;-80
2022/05/29 07:34:43;;;;;;;4.10;2.50;;;13.10;99.90;;;;;;5015073;28;20033;-79
2022/05/29 07:37:13;;;;;;;5.35;2.42;;;13.20;99.90;;;;;;5012377;28;20033;-80
2022/05/29 07:39:47;;;;;;;10.80;3.35;;;13.20;99.90;;;;;;5014638;28;20378;-79
2022/05/29 07:44:59;;;;;;;6.55;2.40;;;13.30;99.90;;;;;;5012793;28;20164;-80
2022/05/29 07:47:27;;;;;;;7.75;2.97;;;13.30;99.90;;;;;;5014048;28;20030;-79
2022/05/29 07:49:53;;;;;;;5.85;2.92;;;13.20;99.90;;;;;;5006884;28;20467;-79
2022/05/29 07:52:20;;;;;;;6.53;2.35;;;13.10;99.90;;;;;;5014395;28;20026;-79
2022/05/29 07:54:45;;;;;;;4.68;2.90;;;13.10;99.90;;;;;;5012257;28;20471;-79
2022/05/29 07:57:11;;;;;;;7.10;3.00;;;13.10;99.90;;;;;;5013417;28;20033;-79
2022/05/29 07:59:37;;;;;;;7.63;2.50;;;13.00;99.90;;;;;;5014922;28;20061;-80
2022/05/29 08:02:02;;;;;;;5.68;2.78;;;13.10;99.90;;;;;;5007165;28;20042;-79
2022/05/29 08:04:28;;;;;;;4.15;2.58;;;13.20;99.90;;;;;;5009668;28;20019;-80
2022/05/29 08:06:54;;;;;;;8.65;3.03;;;13.20;99.90;;;;;;5015168;28;20042;-78
2022/05/29 08:09:20;;;;;;;6.13;2.80;;;13.30;99.90;;;;;;5013387;28;20041;-78
2022/05/29 08:11:45;;;;;;;6.05;2.60;;;13.40;99.90;;;;;;5012383;28;20034;-78
2022/05/29 08:14:11;;;;;;;4.97;2.40;;;13.40;99.90;;;;;;5013111;28;20425;-78
2022/05/29 08:16:36;;;;;;;3.92;2.40;;;13.40;99.90;;;;;;5013989;28;20453;-78
2022/05/29 08:19:03;;;;;;;13.02;2.97;;;13.50;99.90;;;;;;5012848;28;20048;-78
2022/05/29 08:21:28;;;;;;;5.45;2.67;;;13.60;99.90;;;;;;5011566;28;20080;-78
2022/05/29 08:32:09;;;;;;;9.95;2.78;;;14.10;99.90;;;;;;5010200;28;20033;-78
2022/05/29 08:34:34;;;;;;;9.00;3.03;;;14.30;99.90;;;;;;5012339;28;20029;-78
2022/05/29 08:37:00;;;;;;;8.45;2.25;;;14.50;99.90;;;;;;5012456;28;20049;-78
2022/05/29 08:39:25;;;;;;;7.45;2.53;;;14.80;99.90;;;;;;5010168;28;20034;-78
2022/05/29 08:41:53;;;;;;;5.65;2.70;;;15.00;99.90;;;;;;5011488;28;20026;-78
2022/05/29 08:44:42;;;;;;;4.53;2.20;;;15.10;99.90;;;;;;5025998;28;20033;-78
2022/05/29 08:47:08;;;;;;;5.05;2.60;;;15.30;99.90;;;;;;5009742;28;20044;-78
2022/05/29 08:49:47;;;;;;;4.50;2.10;;;15.40;99.90;;;;;;5027473;28;20034;-78
2022/05/29 08:52:29;;;;;;;3.53;1.98;;;15.50;99.90;;;;;;5001760;28;20470;-79
2022/05/29 08:55:13;;;;;;;4.88;1.70;;;15.70;99.90;;;;;;5007355;28;20156;-79
2022/05/29 08:57:44;;;;;;;7.95;2.20;;;15.90;99.90;;;;;;5003804;28;20037;-79
2022/05/29 09:00:23;;;;;;;4.45;1.75;;;15.90;99.90;;;;;;5011052;28;20076;-80
2022/05/29 09:03:26;;;;;;;6.95;2.45;;;16.00;99.90;;;;;;5026802;28;20517;-80
2022/05/29 09:05:57;;;;;;;7.75;1.90;;;15.80;99.90;;;;;;5002371;28;20026;-78
2022/05/29 09:08:36;;;;;;;5.15;2.38;;;15.60;99.90;;;;;;5010518;28;20426;-79
2022/05/29 09:11:14;;;;;;;5.28;2.08;;;15.40;99.90;;;;;;5008270;28;20158;-79
2022/05/29 09:14:01;;;;;;;5.93;2.25;;;15.10;99.90;;;;;;5013576;28;20030;-79
2022/05/29 09:16:32;;;;;;;5.30;1.80;;;14.80;99.90;;;;;;5013336;28;20030;-79
2022/05/29 09:19:30;;;;;;;5.13;2.20;;;14.50;99.90;;;;;;5010391;28;20073;-79
2022/05/29 09:22:02;;;;;;;4.78;1.88;;;14.40;99.90;;;;;;5009475;28;20034;-79
2022/05/29 09:24:36;;;;;;;5.15;2.10;;;14.20;99.90;;;;;;5010868;28;20029;-79
2022/05/29 09:27:02;;;;;;;4.40;2.25;;;14.00;99.90;;;;;;5027835;28;20135;-79
2022/05/29 09:29:27;;;;;;;8.93;2.40;;;13.80;99.90;;;;;;5012656;28;20245;-79
2022/05/29 09:31:53;;;;;;;4.20;1.90;;;13.60;99.90;;;;;;5012474;28;20410;-79
2022/05/29 09:34:19;;;;;;;4.80;2.05;;;13.40;99.90;;;;;;5012078;28;20045;-80
2022/05/29 09:37:00;;;;;;;6.50;2.47;;;13.30;99.90;;;;;;5012019;28;20040;-78
2022/05/29 09:39:33;;;;;;;5.75;2.63;;;13.20;99.90;;;;;;5010319;28;20026;-79
2022/05/29 09:42:12;;;;;;;7.05;2.40;;;13.10;99.90;;;;;;5011128;28;20026;-78
2022/05/29 09:44:38;;;;;;;6.60;2.25;;;13.00;99.90;;;;;;5011893;28;20041;-78
2022/05/29 09:50:11;;;;;;;5.03;2.35;;;12.80;99.90;;;;;;5011448;28;20224;-78
2022/05/29 09:52:41;;;;;;;5.13;2.40;;;12.70;99.90;;;;;;5011751;28;20037;-78
2022/05/29 09:55:32;;;;;;;5.07;2.40;;;12.70;99.90;;;;;;5004135;28;20029;-78
2022/05/29 09:58:10;;;;;;;6.85;2.53;;;12.60;99.90;;;;;;5012685;28;20026;-78
2022/05/29 10:00:51;;;;;;;4.40;2.20;;;12.50;99.90;;;;;;5011900;28;20052;-78
2022/05/29 10:03:38;;;;;;;4.15;2.30;;;12.50;99.90;;;;;;5012151;28;20273;-78
2022/05/29 10:06:22;;;;;;;5.97;2.53;;;12.50;99.90;;;;;;5011860;28;20056;-78
2022/05/29 10:08:49;;;;;;;8.38;2.67;;;12.50;99.90;;;;;;5011876;28;20033;-79
2022/05/29 10:11:35;;;;;;;7.90;2.72;;;12.50;99.90;;;;;;5012375;28;20033;-78
2022/05/29 10:14:34;;;;;;;7.75;2.90;;;12.50;99.90;;;;;;5012078;28;20394;-78
2022/05/29 10:17:00;;;;;;;5.75;2.83;;;12.50;99.90;;;;;;5012311;28;20148;-79
2022/05/29 10:19:36;;;;;;;4.80;1.88;;;12.50;99.90;;;;;;5011525;28;20129;-78
2022/05/29 10:22:14;;;;;;;5.18;1.45;;;12.40;99.90;;;;;;5007670;28;20026;-78
2022/05/29 10:24:41;;;;;;;3.00;1.40;;;12.30;99.90;;;;;;5010898;28;20060;-79
2022/05/29 10:27:32;;;;;;;3.85;1.40;;;12.20;99.90;;;;;;5007926;28;20018;-79
2022/05/29 10:30:04;;;;;;;7.07;1.80;;;12.10;99.90;;;;;;5006613;28;20026;-78
2022/05/29 10:32:33;;;;;;;4.22;1.88;;;12.10;99.90;;;;;;5026780;28;20044;-78
2022/05/29 10:35:11;;;;;;;5.03;1.52;;;12.00;99.90;;;;;;5011261;28;20022;-79
2022/05/29 10:37:40;;;;;;;8.73;1.75;;;11.90;99.90;;;;;;5019255;28;20026;-78
2022/05/29 10:40:29;;;;;;;3.97;1.48;;;11.70;99.90;;;;;;5011197;28;20021;-78
2022/05/29 10:42:59;;;;;;;3.83;1.70;;;11.40;99.90;;;;;;5006828;28;20033;-78
2022/05/29 10:45:32;;;;;;;3.03;1.45;;;11.20;99.90;;;;;;5009521;28;20017;-78
2022/05/29 10:48:03;;;;;;;2.78;1.73;;;11.10;99.90;;;;;;5012156;28;20056;-77
2022/05/29 10:50:51;;;;;;;4.28;2.13;;;10.90;99.90;;;;;;5011854;28;20382;-80
2022/05/29 10:53:35;;;;;;;3.72;2.00;;;10.80;99.90;;;;;;5009834;28;20056;-81
2022/05/29 10:56:31;;;;;;;10.57;2.13;;;10.70;99.90;;;;;;5008553;28;20073;-81
2022/05/29 10:59:20;;;;;;;5.30;2.00;;;10.70;99.90;;;;;;4995464;28;20138;-78
2022/05/29 11:04:56;;;;;;;5.20;2.20;;;10.70;99.90;;;;;;5003757;28;20040;-79
2022/05/29 11:07:25;;;;;;;6.82;3.05;;;10.80;99.90;;;;;;5011097;28;20037;-79
2022/05/29 11:09:50;;;;;;;3.90;2.35;;;10.90;99.90;;;;;;5010901;28;20030;-79
2022/05/29 11:12:50;;;;;;;3.97;1.92;;;11.10;99.90;;;;;;5014047;28;20498;-79
2022/05/29 11:15:36;;;;;;;5.22;2.40;;;11.20;99.90;;;;;;5010471;28;20026;-80
2022/05/29 11:18:40;;;;;;;4.97;2.20;;;11.40;99.90;;;;;;5012432;28;20030;-79
2022/05/29 11:21:20;;;;;;;6.25;2.15;;;11.60;99.90;;;;;;5012686;28;20025;-80
2022/05/29 11:24:06;;;;;;;3.08;2.00;;;11.80;99.90;;;;;;5012990;28;20021;-80
2022/05/29 11:26:57;;;;;;;4.95;2.47;;;11.80;99.90;;;;;;5010931;28;20157;-80
2022/05/29 11:29:28;;;;;;;4.47;2.00;;;11.80;99.90;;;;;;5008873;28;20052;-80
2022/05/29 11:32:16;;;;;;;2.85;1.88;;;11.80;99.90;;;;;;5027608;28;20025;-80
2022/05/29 11:34:55;;;;;;;4.07;2.05;;;11.90;99.90;;;;;;5012281;28;20026;-80
2022/05/29 11:37:38;;;;;;;7.13;2.40;;;11.90;99.90;;;;;;5026134;28;20041;-80
2022/05/29 11:40:31;;;;;;;5.63;2.05;;;12.00;99.90;;;;;;5011349;28;20021;-80
2022/05/29 11:43:01;;;;;;;4.43;2.10;;;12.10;99.90;;;;;;5003562;28;20087;-80
2022/05/29 11:51:25;;;;;;;4.57;2.10;;;12.00;99.90;;;;;;5009068;28;20061;-79
2022/05/29 11:54:15;;;;;;;5.97;2.63;;;12.00;99.90;;;;;;5025861;28;20033;-80
2022/05/29 11:56:54;;;;;;;4.50;2.10;;;12.10;99.90;;;;;;5011511;28;20036;-80
2022/05/29 11:59:22;;;;;;;3.38;2.00;;;12.20;99.90;;;;;;5005287;28;20382;-80
2022/05/29 12:01:55;;;;;;;4.25;2.35;;;12.30;99.90;;;;;;5013371;28;20109;-81
2022/05/29 12:04:49;;;;;;;5.03;1.65;;;12.30;99.90;;;;;;5013727;28;20029;-80
2022/05/29 12:07:23;;;;;;;3.90;1.80;;;12.50;99.90;;;;;;5011635;28;20053;-80
2022/05/29 12:10:04;;;;;;;4.00;2.08;;;12.60;99.90;;;;;;5015844;28;20026;-80
2022/05/29 12:12:38;;;;;;;2.50;1.50;;;12.80;99.90;;;;;;5015957;28;20030;-81
2022/05/29 12:15:09;;;;;;;5.05;1.90;;;12.80;99.90;;;;;;5015583;28;20025;-81
2022/05/29 12:17:45;;;;;;;3.60;1.67;;;12.90;99.90;;;;;;5015616;28;20081;-81
2022/05/29 12:20:23;;;;;;;4.60;2.05;;;13.20;99.90;;;;;;5033507;28;20022;-80
2022/05/29 12:22:55;;;;;;;4.80;2.30;;;13.20;99.90;;;;;;5015742;28;20042;-76
2022/05/29 12:25:30;;;;;;;3.53;1.80;;;13.30;99.90;;;;;;5015298;28;20084;-74
2022/05/29 12:28:01;;;;;;;2.90;1.70;;;13.40;99.90;;;;;;5015155;28;20025;-73
2022/05/29 12:30:41;;;;;;;4.32;1.60;;;13.50;99.90;;;;;;5015192;28;20455;-70
2022/05/29 12:33:15;;;;;;;4.63;1.50;;;13.60;99.90;;;;;;5014676;28;20018;-70
2022/05/29 12:36:12;;;;;;;1.92;1.30;;;13.50;99.90;;;;;;5014646;28;20443;-72
2022/05/29 12:38:57;;;;;;;4.53;1.70;;;13.40;99.90;;;;;;5014516;28;20104;-71
2022/05/29 12:41:28;;;;;;;2.85;1.67;;;13.60;99.90;;;;;;5013943;28;20379;-71
2022/05/29 12:43:57;;;;;;;6.00;2.50;;;13.80;99.90;;;;;;5014629;28;20356;-72
2022/05/29 12:46:56;;;;;;;3.78;1.70;;;13.80;99.90;;;;;;5014641;28;20029;-71
2022/05/29 12:49:32;;;;;;;4.07;1.60;;;13.90;99.90;;;;;;5012010;28;20060;-71
2022/05/29 12:52:14;;;;;;;3.40;1.60;;;13.90;99.90;;;;;;5014386;28;20040;-71
2022/05/29 12:55:16;;;;;;;3.92;1.67;;;13.90;99.90;;;;;;5012497;28;20014;-71
2022/05/29 12:57:53;;;;;;;3.50;1.52;;;14.00;99.90;;;;;;5003849;28;20029;-71
2022/05/29 13:00:34;;;;;;;2.88;1.60;;;13.80;99.90;;;;;;5002325;28;20057;-71
2022/05/29 13:03:18;;;;;;;2.92;1.30;;;13.70;99.90;;;;;;5004053;28;20025;-72
2022/05/29 13:06:06;;;;;;;2.83;1.30;;;13.60;99.90;;;;;;5005036;28;20045;-71
2022/05/29 13:08:43;;;;;;;5.65;1.40;;;13.40;99.90;;;;;;5011413;28;20049;-72
2022/05/29 13:11:10;;;;;;;1.85;1.20;;;13.20;99.90;;;;;;5012757;28;20022;-72
2022/05/29 13:13:43;;;;;;;2.17;1.10;;;13.20;99.90;;;;;;5016039;28;20506;-71
2022/05/29 13:16:26;;;;;;;3.30;1.10;;;13.10;99.90;;;;;;5008357;28;20026;-72
2022/05/29 13:22:06;;;;;;;1.52;0.88;;;13.00;99.90;;;;;;5008783;28;20056;-72
2022/05/29 13:24:38;;;;;;;1.70;0.90;;;13.00;99.90;;;;;;5013986;28;20087;-72
2022/05/29 13:27:13;;;;;;;6.43;5.43;;;13.00;99.90;;;;;;5013866;28;20030;-74
2022/05/29 13:29:46;;;;;;;3.72;1.20;;;13.10;99.90;;;;;;4998652;28;20034;-74
2022/05/29 13:32:14;;;;;;;1.98;1.00;;;13.20;99.90;;;;;;5002417;28;20026;-78
2022/05/29 13:34:44;;;;;;;4.38;1.17;;;13.10;99.90;;;;;;5005225;28;20033;-79
2022/05/29 13:37:20;;;;;;;2.05;0.88;;;13.10;99.90;;;;;;5005197;28;20752;-79
2022/05/29 13:40:00;;;;;;;2.08;1.00;;;13.00;99.90;;;;;;5007757;28;20907;-79
2022/05/29 13:42:49;;;;;;;3.35;1.00;;;13.10;99.90;;;;;;5004042;28;20033;-79
2022/05/29 13:45:23;;;;;;;1.30;0.95;;;13.20;99.90;;;;;;5001471;28;20030;-71
2022/05/29 13:48:00;;;;;;;1.90;0.90;;;13.20;99.90;;;;;;5009113;28;20393;-74
2022/05/29 13:50:41;;;;;;;1.08;0.90;;;13.30;99.90;;;;;;5005736;28;20075;-72
2022/05/29 13:53:39;;;;;;;1.40;1.00;;;13.60;99.90;;;;;;5002362;28;20025;-72
2022/05/29 13:56:09;;;;;;;1.25;0.90;;;13.70;99.90;;;;;;5013759;28;20030;-76
2022/05/29 14:04:31;;;;;;;2.67;1.00;;;14.00;99.90;;;;;;5014245;28;20529;-74
2022/05/29 14:07:16;;;;;;;2.00;0.90;;;14.00;99.90;;;;;;5019347;28;20128;-74